sensor_id;sensor_type;location;lat;lon;timestamp;P1;durP1;ratioP1;P2;durP2;ratioP2
45522;SDS011;31254;51.680;5.394;2022-09-03T00:05:14;5.25;;;2.60;;
45522;SDS011;31254;51.680;5.394;2022-09-03T00:13:43;5.63;;;2.50;;
45522;SDS011;31254;51.680;5.394;2022-09-03T00:16:15;4.80;;;2.30;;
45522;SDS011;31254;51.680;5.394;2022-09-03T00:18:49;5.90;;;2.50;;
45522;SDS011;31254;51.680;5.394;2022-09-03T00:21:30;5.47;;;2.60;;
45522;SDS011;31254;51.680;5.394;2022-09-03T00:24:03;5.85;;;2.80;;
45522;SDS011;31254;51.680;5.394;2022-09-03T00:26:39;5.47;;;2.95;;
45522;SDS011;31254;51.680;5.394;2022-09-03T00:38:04;6.65;;;2.30;;
45522;SDS011;31254;51.680;5.394;2022-09-03T00:49:12;3.10;;;2.17;;
45522;SDS011;31254;51.680;5.394;2022-09-03T00:54:29;4.70;;;2.20;;
45522;SDS011;31254;51.680;5.394;2022-09-03T00:57:22;3.80;;;2.50;;
45522;SDS011;31254;51.680;5.394;2022-09-03T01:00:12;6.45;;;2.50;;
45522;SDS011;31254;51.680;5.394;2022-09-03T01:02:56;5.20;;;2.40;;
45522;SDS011;31254;51.680;5.394;2022-09-03T01:08:51;6.00;;;2.88;;
45522;SDS011;31254;51.680;5.394;2022-09-03T01:11:38;6.25;;;2.65;;
45522;SDS011;31254;51.680;5.394;2022-09-03T01:14:38;6.00;;;2.67;;
45522;SDS011;31254;51.680;5.394;2022-09-03T01:17:35;5.30;;;2.80;;
45522;SDS011;31254;51.680;5.394;2022-09-03T01:23:14;9.57;;;2.95;;
45522;SDS011;31254;51.680;5.394;2022-09-03T01:28:40;10.27;;;2.97;;
45522;SDS011;31254;51.680;5.394;2022-09-03T01:31:22;8.30;;;2.80;;
45522;SDS011;31254;51.680;5.394;2022-09-03T01:39:12;7.82;;;2.75;;
45522;SDS011;31254;51.680;5.394;2022-09-03T01:50:46;4.50;;;2.40;;
45522;SDS011;31254;51.680;5.394;2022-09-03T02:02:30;5.30;;;2.72;;
45522;SDS011;31254;51.680;5.394;2022-09-03T02:05:05;7.68;;;2.80;;
45522;SDS011;31254;51.680;5.394;2022-09-03T02:07:49;4.25;;;2.33;;
45522;SDS011;31254;51.680;5.394;2022-09-03T02:10:22;6.13;;;2.70;;
45522;SDS011;31254;51.680;5.394;2022-09-03T02:15:51;4.45;;;2.35;;
45522;SDS011;31254;51.680;5.394;2022-09-03T02:18:26;5.30;;;2.22;;
45522;SDS011;31254;51.680;5.394;2022-09-03T02:20:56;4.93;;;2.22;;
45522;SDS011;31254;51.680;5.394;2022-09-03T02:23:26;4.10;;;2.17;;
45522;SDS011;31254;51.680;5.394;2022-09-03T02:25:57;4.18;;;1.77;;
45522;SDS011;31254;51.680;5.394;2022-09-03T02:28:27;4.60;;;2.03;;
45522;SDS011;31254;51.680;5.394;2022-09-03T02:30:56;4.03;;;2.08;;
45522;SDS011;31254;51.680;5.394;2022-09-03T02:33:23;4.68;;;2.38;;
45522;SDS011;31254;51.680;5.394;2022-09-03T02:35:50;5.43;;;1.90;;
45522;SDS011;31254;51.680;5.394;2022-09-03T02:38:19;9.23;;;1.90;;
45522;SDS011;31254;51.680;5.394;2022-09-03T02:40:47;4.35;;;1.98;;
45522;SDS011;31254;51.680;5.394;2022-09-03T02:43:30;4.65;;;2.05;;
45522;SDS011;31254;51.680;5.394;2022-09-03T02:46:11;6.22;;;2.35;;
45522;SDS011;31254;51.680;5.394;2022-09-03T02:48:43;5.30;;;2.50;;
45522;SDS011;31254;51.680;5.394;2022-09-03T02:51:10;4.05;;;1.85;;
45522;SDS011;31254;51.680;5.394;2022-09-03T02:53:39;5.20;;;2.45;;
45522;SDS011;31254;51.680;5.394;2022-09-03T02:56:07;6.55;;;2.20;;
45522;SDS011;31254;51.680;5.394;2022-09-03T02:58:36;4.15;;;2.03;;
45522;SDS011;31254;51.680;5.394;2022-09-03T03:01:06;6.30;;;2.28;;
45522;SDS011;31254;51.680;5.394;2022-09-03T03:03:32;4.28;;;2.05;;
45522;SDS011;31254;51.680;5.394;2022-09-03T03:05:59;3.85;;;2.08;;
45522;SDS011;31254;51.680;5.394;2022-09-03T03:08:28;5.05;;;2.15;;
45522;SDS011;31254;51.680;5.394;2022-09-03T03:10:56;4.18;;;2.08;;
45522;SDS011;31254;51.680;5.394;2022-09-03T03:13:24;3.95;;;2.10;;
45522;SDS011;31254;51.680;5.394;2022-09-03T03:15:55;5.03;;;2.22;;
45522;SDS011;31254;51.680;5.394;2022-09-03T03:18:27;4.55;;;1.80;;
45522;SDS011;31254;51.680;5.394;2022-09-03T03:20:54;6.53;;;2.08;;
45522;SDS011;31254;51.680;5.394;2022-09-03T03:23:23;6.13;;;2.17;;
45522;SDS011;31254;51.680;5.394;2022-09-03T03:25:49;5.63;;;1.98;;
45522;SDS011;31254;51.680;5.394;2022-09-03T03:28:18;3.10;;;2.10;;
45522;SDS011;31254;51.680;5.394;2022-09-03T03:30:45;3.17;;;1.90;;
45522;SDS011;31254;51.680;5.394;2022-09-03T03:33:14;5.03;;;2.03;;
45522;SDS011;31254;51.680;5.394;2022-09-03T03:35:44;3.95;;;2.03;;
45522;SDS011;31254;51.680;5.394;2022-09-03T03:38:10;5.72;;;2.22;;
45522;SDS011;31254;51.680;5.394;2022-09-03T03:40:37;5.50;;;2.00;;
45522;SDS011;31254;51.680;5.394;2022-09-03T03:43:05;7.63;;;1.90;;
45522;SDS011;31254;51.680;5.394;2022-09-03T03:45:33;6.10;;;2.33;;
45522;SDS011;31254;51.680;5.394;2022-09-03T03:48:00;5.65;;;2.10;;
45522;SDS011;31254;51.680;5.394;2022-09-03T03:50:27;4.65;;;2.22;;
45522;SDS011;31254;51.680;5.394;2022-09-03T03:52:57;3.65;;;1.80;;
45522;SDS011;31254;51.680;5.394;2022-09-03T03:55:27;5.18;;;1.85;;
45522;SDS011;31254;51.680;5.394;2022-09-03T03:58:00;6.28;;;2.00;;
45522;SDS011;31254;51.680;5.394;2022-09-03T04:00:26;4.72;;;2.25;;
45522;SDS011;31254;51.680;5.394;2022-09-03T04:02:53;6.85;;;1.90;;
45522;SDS011;31254;51.680;5.394;2022-09-03T04:05:20;5.38;;;1.90;;
45522;SDS011;31254;51.680;5.394;2022-09-03T04:07:49;4.38;;;1.90;;
45522;SDS011;31254;51.680;5.394;2022-09-03T04:10:15;11.77;;;2.30;;
45522;SDS011;31254;51.680;5.394;2022-09-03T04:12:44;4.85;;;2.17;;
45522;SDS011;31254;51.680;5.394;2022-09-03T04:15:11;6.40;;;2.17;;
45522;SDS011;31254;51.680;5.394;2022-09-03T04:17:38;3.97;;;2.08;;
45522;SDS011;31254;51.680;5.394;2022-09-03T04:20:05;4.85;;;1.77;;
45522;SDS011;31254;51.680;5.394;2022-09-03T04:22:31;6.13;;;1.90;;
45522;SDS011;31254;51.680;5.394;2022-09-03T04:24:59;5.25;;;1.70;;
45522;SDS011;31254;51.680;5.394;2022-09-03T04:27:25;5.07;;;2.22;;
45522;SDS011;31254;51.680;5.394;2022-09-03T04:29:52;4.05;;;1.88;;
45522;SDS011;31254;51.680;5.394;2022-09-03T04:32:19;3.83;;;1.92;;
45522;SDS011;31254;51.680;5.394;2022-09-03T04:35:04;3.85;;;2.00;;
45522;SDS011;31254;51.680;5.394;2022-09-03T04:37:31;4.85;;;2.47;;
45522;SDS011;31254;51.680;5.394;2022-09-03T04:39:57;5.35;;;2.20;;
45522;SDS011;31254;51.680;5.394;2022-09-03T04:42:24;5.07;;;2.00;;
45522;SDS011;31254;51.680;5.394;2022-09-03T04:44:51;9.60;;;2.05;;
45522;SDS011;31254;51.680;5.394;2022-09-03T04:47:17;5.13;;;2.08;;
45522;SDS011;31254;51.680;5.394;2022-09-03T04:49:44;6.00;;;2.05;;
45522;SDS011;31254;51.680;5.394;2022-09-03T04:52:13;8.32;;;2.78;;
45522;SDS011;31254;51.680;5.394;2022-09-03T04:54:39;6.03;;;1.92;;
45522;SDS011;31254;51.680;5.394;2022-09-03T04:57:06;6.22;;;2.38;;
45522;SDS011;31254;51.680;5.394;2022-09-03T04:59:32;5.18;;;2.10;;
45522;SDS011;31254;51.680;5.394;2022-09-03T05:01:59;5.32;;;2.00;;
45522;SDS011;31254;51.680;5.394;2022-09-03T05:04:26;4.55;;;1.80;;
45522;SDS011;31254;51.680;5.394;2022-09-03T05:06:53;7.15;;;2.03;;
45522;SDS011;31254;51.680;5.394;2022-09-03T05:09:19;10.48;;;1.98;;
45522;SDS011;31254;51.680;5.394;2022-09-03T05:11:46;3.60;;;2.17;;
45522;SDS011;31254;51.680;5.394;2022-09-03T05:14:13;8.48;;;2.05;;
45522;SDS011;31254;51.680;5.394;2022-09-03T05:16:39;5.03;;;2.10;;
45522;SDS011;31254;51.680;5.394;2022-09-03T05:19:06;3.50;;;2.10;;
45522;SDS011;31254;51.680;5.394;2022-09-03T05:21:33;7.65;;;2.35;;
45522;SDS011;31254;51.680;5.394;2022-09-03T05:24:03;9.63;;;2.65;;
45522;SDS011;31254;51.680;5.394;2022-09-03T05:26:31;4.78;;;2.47;;
45522;SDS011;31254;51.680;5.394;2022-09-03T05:29:02;6.43;;;2.20;;
45522;SDS011;31254;51.680;5.394;2022-09-03T05:31:33;4.25;;;2.33;;
45522;SDS011;31254;51.680;5.394;2022-09-03T05:34:02;4.22;;;2.60;;
45522;SDS011;31254;51.680;5.394;2022-09-03T05:36:33;4.43;;;2.20;;
45522;SDS011;31254;51.680;5.394;2022-09-03T05:39:02;4.80;;;2.00;;
45522;SDS011;31254;51.680;5.394;2022-09-03T05:41:30;3.55;;;2.17;;
45522;SDS011;31254;51.680;5.394;2022-09-03T05:43:59;4.97;;;2.30;;
45522;SDS011;31254;51.680;5.394;2022-09-03T05:46:29;4.55;;;2.17;;
45522;SDS011;31254;51.680;5.394;2022-09-03T05:48:58;5.82;;;2.30;;
45522;SDS011;31254;51.680;5.394;2022-09-03T05:51:31;10.88;;;2.45;;
45522;SDS011;31254;51.680;5.394;2022-09-03T05:53:59;8.63;;;2.50;;
45522;SDS011;31254;51.680;5.394;2022-09-03T05:56:27;5.35;;;2.65;;
45522;SDS011;31254;51.680;5.394;2022-09-03T05:58:57;5.38;;;2.63;;
45522;SDS011;31254;51.680;5.394;2022-09-03T06:01:31;5.28;;;2.28;;
45522;SDS011;31254;51.680;5.394;2022-09-03T06:06:31;5.95;;;2.28;;
45522;SDS011;31254;51.680;5.394;2022-09-03T06:09:00;9.52;;;2.13;;
45522;SDS011;31254;51.680;5.394;2022-09-03T06:11:36;5.68;;;1.95;;
45522;SDS011;31254;51.680;5.394;2022-09-03T06:14:05;4.97;;;2.10;;
45522;SDS011;31254;51.680;5.394;2022-09-03T06:16:35;8.75;;;1.83;;
45522;SDS011;31254;51.680;5.394;2022-09-03T06:19:04;9.98;;;2.40;;
45522;SDS011;31254;51.680;5.394;2022-09-03T06:21:36;6.43;;;2.15;;
45522;SDS011;31254;51.680;5.394;2022-09-03T06:24:11;5.78;;;2.28;;
45522;SDS011;31254;51.680;5.394;2022-09-03T06:26:45;5.90;;;2.03;;
45522;SDS011;31254;51.680;5.394;2022-09-03T06:29:12;4.00;;;2.17;;
45522;SDS011;31254;51.680;5.394;2022-09-03T06:31:39;4.20;;;2.08;;
45522;SDS011;31254;51.680;5.394;2022-09-03T06:34:05;4.38;;;1.90;;
45522;SDS011;31254;51.680;5.394;2022-09-03T06:36:32;6.00;;;2.25;;
45522;SDS011;31254;51.680;5.394;2022-09-03T06:38:59;6.20;;;2.13;;
45522;SDS011;31254;51.680;5.394;2022-09-03T06:41:28;3.15;;;1.90;;
45522;SDS011;31254;51.680;5.394;2022-09-03T06:44:02;4.38;;;1.83;;
45522;SDS011;31254;51.680;5.394;2022-09-03T06:46:36;4.90;;;2.08;;
45522;SDS011;31254;51.680;5.394;2022-09-03T06:49:09;3.65;;;1.88;;
45522;SDS011;31254;51.680;5.394;2022-09-03T06:51:37;7.35;;;2.08;;
45522;SDS011;31254;51.680;5.394;2022-09-03T06:54:07;3.47;;;1.90;;
45522;SDS011;31254;51.680;5.394;2022-09-03T06:56:36;7.97;;;2.30;;
45522;SDS011;31254;51.680;5.394;2022-09-03T06:59:07;7.97;;;1.88;;
45522;SDS011;31254;51.680;5.394;2022-09-03T07:01:37;7.32;;;2.28;;
45522;SDS011;31254;51.680;5.394;2022-09-03T07:04:09;5.53;;;2.00;;
45522;SDS011;31254;51.680;5.394;2022-09-03T07:06:38;9.75;;;2.15;;
45522;SDS011;31254;51.680;5.394;2022-09-03T07:09:07;6.95;;;1.88;;
45522;SDS011;31254;51.680;5.394;2022-09-03T07:11:35;5.38;;;1.95;;
45522;SDS011;31254;51.680;5.394;2022-09-03T07:14:02;6.38;;;2.03;;
45522;SDS011;31254;51.680;5.394;2022-09-03T07:16:34;4.07;;;1.73;;
45522;SDS011;31254;51.680;5.394;2022-09-03T07:19:03;4.72;;;2.10;;
45522;SDS011;31254;51.680;5.394;2022-09-03T07:21:32;4.57;;;2.03;;
45522;SDS011;31254;51.680;5.394;2022-09-03T07:23:59;4.90;;;1.60;;
45522;SDS011;31254;51.680;5.394;2022-09-03T07:26:28;7.18;;;2.53;;
45522;SDS011;31254;51.680;5.394;2022-09-03T07:28:56;3.58;;;1.80;;
45522;SDS011;31254;51.680;5.394;2022-09-03T07:31:28;2.75;;;1.60;;
45522;SDS011;31254;51.680;5.394;2022-09-03T07:33:55;5.70;;;2.00;;
45522;SDS011;31254;51.680;5.394;2022-09-03T07:36:27;5.88;;;1.85;;
45522;SDS011;31254;51.680;5.394;2022-09-03T07:39:00;5.85;;;1.48;;
45522;SDS011;31254;51.680;5.394;2022-09-03T07:41:27;3.95;;;1.70;;
45522;SDS011;31254;51.680;5.394;2022-09-03T07:43:56;3.50;;;1.35;;
45522;SDS011;31254;51.680;5.394;2022-09-03T07:46:25;4.50;;;1.70;;
45522;SDS011;31254;51.680;5.394;2022-09-03T07:48:55;5.93;;;1.58;;
45522;SDS011;31254;51.680;5.394;2022-09-03T07:51:24;5.88;;;2.03;;
45522;SDS011;31254;51.680;5.394;2022-09-03T07:53:53;3.30;;;1.85;;
45522;SDS011;31254;51.680;5.394;2022-09-03T07:56:24;5.03;;;1.60;;
45522;SDS011;31254;51.680;5.394;2022-09-03T07:58:52;4.75;;;1.85;;
45522;SDS011;31254;51.680;5.394;2022-09-03T08:01:22;4.95;;;1.70;;
45522;SDS011;31254;51.680;5.394;2022-09-03T08:03:50;7.40;;;1.70;;
45522;SDS011;31254;51.680;5.394;2022-09-03T08:06:20;9.13;;;1.95;;
45522;SDS011;31254;51.680;5.394;2022-09-03T08:08:52;6.50;;;1.75;;
45522;SDS011;31254;51.680;5.394;2022-09-03T08:11:28;4.72;;;1.83;;
45522;SDS011;31254;51.680;5.394;2022-09-03T08:14:00;6.55;;;1.63;;
45522;SDS011;31254;51.680;5.394;2022-09-03T08:16:29;10.45;;;1.70;;
45522;SDS011;31254;51.680;5.394;2022-09-03T08:18:57;7.57;;;1.67;;
45522;SDS011;31254;51.680;5.394;2022-09-03T08:21:25;6.65;;;1.42;;
45522;SDS011;31254;51.680;5.394;2022-09-03T08:23:53;3.53;;;1.35;;
45522;SDS011;31254;51.680;5.394;2022-09-03T08:26:28;6.57;;;1.50;;
45522;SDS011;31254;51.680;5.394;2022-09-03T08:29:02;7.50;;;1.70;;
45522;SDS011;31254;51.680;5.394;2022-09-03T08:31:30;6.53;;;1.80;;
45522;SDS011;31254;51.680;5.394;2022-09-03T08:33:59;4.13;;;2.00;;
45522;SDS011;31254;51.680;5.394;2022-09-03T08:36:33;3.83;;;1.80;;
45522;SDS011;31254;51.680;5.394;2022-09-03T08:39:02;5.35;;;2.00;;
45522;SDS011;31254;51.680;5.394;2022-09-03T08:44:25;5.97;;;2.15;;
45522;SDS011;31254;51.680;5.394;2022-09-03T08:54:47;6.07;;;1.73;;
45522;SDS011;31254;51.680;5.394;2022-09-03T08:57:16;4.85;;;1.50;;
45522;SDS011;31254;51.680;5.394;2022-09-03T08:59:46;6.40;;;2.40;;
45522;SDS011;31254;51.680;5.394;2022-09-03T09:05:19;6.60;;;1.60;;
45522;SDS011;31254;51.680;5.394;2022-09-03T09:07:48;7.55;;;1.80;;
45522;SDS011;31254;51.680;5.394;2022-09-03T09:13:28;12.23;;;2.65;;
45522;SDS011;31254;51.680;5.394;2022-09-03T09:19:35;4.43;;;1.40;;
45522;SDS011;31254;51.680;5.394;2022-09-03T09:22:33;50.42;;;8.35;;
45522;SDS011;31254;51.680;5.394;2022-09-03T09:25:07;5.38;;;2.28;;
45522;SDS011;31254;51.680;5.394;2022-09-03T09:27:46;5.07;;;2.17;;
45522;SDS011;31254;51.680;5.394;2022-09-03T09:30:18;7.40;;;1.85;;
45522;SDS011;31254;51.680;5.394;2022-09-03T09:32:45;4.20;;;1.38;;
45522;SDS011;31254;51.680;5.394;2022-09-03T09:35:13;5.03;;;1.60;;
45522;SDS011;31254;51.680;5.394;2022-09-03T09:37:46;5.28;;;1.55;;
45522;SDS011;31254;51.680;5.394;2022-09-03T09:40:27;4.43;;;1.77;;
45522;SDS011;31254;51.680;5.394;2022-09-03T09:43:11;10.82;;;2.17;;
45522;SDS011;31254;51.680;5.394;2022-09-03T09:45:42;7.88;;;1.80;;
45522;SDS011;31254;51.680;5.394;2022-09-03T09:48:26;6.35;;;1.77;;
45522;SDS011;31254;51.680;5.394;2022-09-03T09:51:07;5.85;;;2.03;;
45522;SDS011;31254;51.680;5.394;2022-09-03T09:53:39;15.65;;;1.77;;
45522;SDS011;31254;51.680;5.394;2022-09-03T09:56:06;8.38;;;1.92;;
45522;SDS011;31254;51.680;5.394;2022-09-03T09:58:35;6.57;;;1.80;;
45522;SDS011;31254;51.680;5.394;2022-09-03T10:03:52;8.93;;;1.67;;
45522;SDS011;31254;51.680;5.394;2022-09-03T10:06:23;5.10;;;1.55;;
45522;SDS011;31254;51.680;5.394;2022-09-03T10:09:15;4.82;;;1.40;;
45522;SDS011;31254;51.680;5.394;2022-09-03T10:11:45;4.65;;;1.60;;
45522;SDS011;31254;51.680;5.394;2022-09-03T10:16:49;2.22;;;1.52;;
45522;SDS011;31254;51.680;5.394;2022-09-03T10:22:56;5.00;;;1.73;;
45522;SDS011;31254;51.680;5.394;2022-09-03T10:25:38;5.93;;;1.83;;
45522;SDS011;31254;51.680;5.394;2022-09-03T10:28:13;7.00;;;1.83;;
45522;SDS011;31254;51.680;5.394;2022-09-03T10:30:50;5.70;;;1.55;;
45522;SDS011;31254;51.680;5.394;2022-09-03T10:33:30;8.00;;;2.00;;
45522;SDS011;31254;51.680;5.394;2022-09-03T10:36:24;3.17;;;1.40;;
45522;SDS011;31254;51.680;5.394;2022-09-03T10:50:33;4.20;;;1.90;;
45522;SDS011;31254;51.680;5.394;2022-09-03T10:56:10;8.02;;;1.70;;
45522;SDS011;31254;51.680;5.394;2022-09-03T11:04:05;3.10;;;1.30;;
45522;SDS011;31254;51.680;5.394;2022-09-03T11:06:47;4.90;;;1.60;;
45522;SDS011;31254;51.680;5.394;2022-09-03T11:09:29;9.10;;;2.17;;
45522;SDS011;31254;51.680;5.394;2022-09-03T11:12:01;5.38;;;1.83;;
45522;SDS011;31254;51.680;5.394;2022-09-03T11:14:43;6.00;;;1.90;;
45522;SDS011;31254;51.680;5.394;2022-09-03T11:17:27;4.47;;;1.30;;
45522;SDS011;31254;51.680;5.394;2022-09-03T11:22:28;3.58;;;1.33;;
45522;SDS011;31254;51.680;5.394;2022-09-03T11:24:57;2.60;;;1.30;;
45522;SDS011;31254;51.680;5.394;2022-09-03T11:30:02;3.28;;;1.27;;
45522;SDS011;31254;51.680;5.394;2022-09-03T11:35:01;3.92;;;1.40;;
45522;SDS011;31254;51.680;5.394;2022-09-03T11:37:51;2.83;;;1.40;;
45522;SDS011;31254;51.680;5.394;2022-09-03T11:40:42;3.38;;;1.33;;
45522;SDS011;31254;51.680;5.394;2022-09-03T11:43:34;9.35;;;1.67;;
45522;SDS011;31254;51.680;5.394;2022-09-03T11:46:02;4.95;;;1.65;;
45522;SDS011;31254;51.680;5.394;2022-09-03T11:48:50;5.65;;;1.38;;
45522;SDS011;31254;51.680;5.394;2022-09-03T11:53:59;3.28;;;1.42;;
45522;SDS011;31254;51.680;5.394;2022-09-03T11:56:26;3.65;;;1.55;;
45522;SDS011;31254;51.680;5.394;2022-09-03T11:59:15;6.60;;;1.50;;
45522;SDS011;31254;51.680;5.394;2022-09-03T12:01:49;4.57;;;1.27;;
45522;SDS011;31254;51.680;5.394;2022-09-03T12:10:57;5.80;;;1.33;;
45522;SDS011;31254;51.680;5.394;2022-09-03T12:20:09;3.55;;;1.30;;
45522;SDS011;31254;51.680;5.394;2022-09-03T12:22:28;3.05;;;1.40;;
45522;SDS011;31254;51.680;5.394;2022-09-03T12:25:11;5.82;;;1.33;;
45522;SDS011;31254;51.680;5.394;2022-09-03T12:27:39;5.20;;;1.30;;
45522;SDS011;31254;51.680;5.394;2022-09-03T12:30:13;3.10;;;1.33;;
45522;SDS011;31254;51.680;5.394;2022-09-03T12:32:46;3.75;;;1.20;;
45522;SDS011;31254;51.680;5.394;2022-09-03T12:35:18;4.35;;;1.50;;
45522;SDS011;31254;51.680;5.394;2022-09-03T12:38:08;2.53;;;1.20;;
45522;SDS011;31254;51.680;5.394;2022-09-03T12:40:46;4.55;;;1.33;;
45522;SDS011;31254;51.680;5.394;2022-09-03T12:43:33;6.05;;;1.40;;
45522;SDS011;31254;51.680;5.394;2022-09-03T12:46:15;3.28;;;1.33;;
45522;SDS011;31254;51.680;5.394;2022-09-03T12:48:51;3.05;;;1.17;;
45522;SDS011;31254;51.680;5.394;2022-09-03T12:51:40;4.45;;;1.55;;
45522;SDS011;31254;51.680;5.394;2022-09-03T12:54:22;1.67;;;1.05;;
45522;SDS011;31254;51.680;5.394;2022-09-03T12:56:55;5.82;;;1.20;;
45522;SDS011;31254;51.680;5.394;2022-09-03T12:59:26;7.10;;;1.38;;
45522;SDS011;31254;51.680;5.394;2022-09-03T13:02:01;5.55;;;1.10;;
45522;SDS011;31254;51.680;5.394;2022-09-03T13:04:37;4.72;;;1.42;;
45522;SDS011;31254;51.680;5.394;2022-09-03T13:07:06;6.85;;;1.40;;
45522;SDS011;31254;51.680;5.394;2022-09-03T13:09:39;4.10;;;1.20;;
45522;SDS011;31254;51.680;5.394;2022-09-03T13:12:19;5.57;;;1.00;;
45522;SDS011;31254;51.680;5.394;2022-09-03T13:14:46;3.40;;;1.20;;
45522;SDS011;31254;51.680;5.394;2022-09-03T13:23:27;4.30;;;1.15;;
45522;SDS011;31254;51.680;5.394;2022-09-03T13:31:39;3.80;;;1.55;;
45522;SDS011;31254;51.680;5.394;2022-09-03T13:34:15;4.53;;;1.30;;
45522;SDS011;31254;51.680;5.394;2022-09-03T13:36:50;5.35;;;1.58;;
45522;SDS011;31254;51.680;5.394;2022-09-03T13:39:27;6.00;;;1.33;;
45522;SDS011;31254;51.680;5.394;2022-09-03T13:42:11;4.95;;;1.52;;
45522;SDS011;31254;51.680;5.394;2022-09-03T13:52:46;2.17;;;1.13;;
45522;SDS011;31254;51.680;5.394;2022-09-03T14:00:42;8.88;;;1.20;;
45522;SDS011;31254;51.680;5.394;2022-09-03T14:23:35;1.42;;;1.00;;
45522;SDS011;31254;51.680;5.394;2022-09-03T14:26:18;3.47;;;1.20;;
45522;SDS011;31254;51.680;5.394;2022-09-03T14:40:10;3.00;;;1.10;;
45522;SDS011;31254;51.680;5.394;2022-09-03T14:52:14;3.17;;;1.50;;
45522;SDS011;31254;51.680;5.394;2022-09-03T14:54:58;5.13;;;1.40;;
45522;SDS011;31254;51.680;5.394;2022-09-03T15:03:04;2.65;;;1.05;;
45522;SDS011;31254;51.680;5.394;2022-09-03T15:08:53;2.08;;;1.17;;
45522;SDS011;31254;51.680;5.394;2022-09-03T15:11:42;4.60;;;1.30;;
45522;SDS011;31254;51.680;5.394;2022-09-03T15:14:26;7.47;;;1.20;;
45522;SDS011;31254;51.680;5.394;2022-09-03T15:17:19;2.45;;;1.23;;
45522;SDS011;31254;51.680;5.394;2022-09-03T15:31:09;7.10;;;4.18;;
45522;SDS011;31254;51.680;5.394;2022-09-03T15:36:59;8.30;;;1.75;;
45522;SDS011;31254;51.680;5.394;2022-09-03T15:39:35;4.18;;;2.13;;
45522;SDS011;31254;51.680;5.394;2022-09-03T15:42:06;4.43;;;1.60;;
45522;SDS011;31254;51.680;5.394;2022-09-03T15:44:50;2.90;;;1.38;;
45522;SDS011;31254;51.680;5.394;2022-09-03T15:48:04;3.90;;;1.48;;
45522;SDS011;31254;51.680;5.394;2022-09-03T15:56:14;4.28;;;1.58;;
45522;SDS011;31254;51.680;5.394;2022-09-03T15:58:54;3.05;;;1.73;;
45522;SDS011;31254;51.680;5.394;2022-09-03T16:01:46;2.40;;;1.38;;
45522;SDS011;31254;51.680;5.394;2022-09-03T16:09:55;6.10;;;3.67;;
45522;SDS011;31254;51.680;5.394;2022-09-03T16:12:56;10.68;;;6.85;;
45522;SDS011;31254;51.680;5.394;2022-09-03T16:20:33;15.48;;;13.05;;
45522;SDS011;31254;51.680;5.394;2022-09-03T16:23:09;7.90;;;2.50;;
45522;SDS011;31254;51.680;5.394;2022-09-03T16:25:52;2.33;;;1.65;;
45522;SDS011;31254;51.680;5.394;2022-09-03T16:34:34;5.80;;;1.35;;
45522;SDS011;31254;51.680;5.394;2022-09-03T16:42:29;3.88;;;1.88;;
45522;SDS011;31254;51.680;5.394;2022-09-03T16:45:15;29.20;;;18.77;;
45522;SDS011;31254;51.680;5.394;2022-09-03T16:53:15;5.88;;;2.95;;
45522;SDS011;31254;51.680;5.394;2022-09-03T16:58:35;4.75;;;2.35;;
45522;SDS011;31254;51.680;5.394;2022-09-03T17:01:20;10.35;;;5.63;;
45522;SDS011;31254;51.680;5.394;2022-09-03T17:15:25;9.13;;;8.32;;
45522;SDS011;31254;51.680;5.394;2022-09-03T17:21:11;3.83;;;2.35;;
45522;SDS011;31254;51.680;5.394;2022-09-03T17:26:37;4.78;;;1.83;;
45522;SDS011;31254;51.680;5.394;2022-09-03T17:38:07;4.82;;;2.15;;
45522;SDS011;31254;51.680;5.394;2022-09-03T17:43:26;4.97;;;2.67;;
45522;SDS011;31254;51.680;5.394;2022-09-03T17:51:29;6.55;;;3.10;;
45522;SDS011;31254;51.680;5.394;2022-09-03T17:59:39;9.95;;;4.30;;
45522;SDS011;31254;51.680;5.394;2022-09-03T18:04:58;8.43;;;3.10;;
45522;SDS011;31254;51.680;5.394;2022-09-03T18:10:27;5.15;;;2.67;;
45522;SDS011;31254;51.680;5.394;2022-09-03T18:14:08;4.35;;;2.55;;
45522;SDS011;31254;51.680;5.394;2022-09-03T18:16:20;5.35;;;3.13;;
45522;SDS011;31254;51.680;5.394;2022-09-03T18:18:56;6.97;;;4.30;;
45522;SDS011;31254;51.680;5.394;2022-09-03T18:21:45;10.88;;;4.35;;
45522;SDS011;31254;51.680;5.394;2022-09-03T18:24:39;7.43;;;4.50;;
45522;SDS011;31254;51.680;5.394;2022-09-03T18:27:41;9.48;;;5.30;;
45522;SDS011;31254;51.680;5.394;2022-09-03T18:30:32;10.55;;;3.08;;
45522;SDS011;31254;51.680;5.394;2022-09-03T18:33:23;6.60;;;2.75;;
45522;SDS011;31254;51.680;5.394;2022-09-03T18:36:09;7.32;;;2.95;;
45522;SDS011;31254;51.680;5.394;2022-09-03T18:39:02;10.15;;;4.80;;
45522;SDS011;31254;51.680;5.394;2022-09-03T18:49:16;11.10;;;3.33;;
45522;SDS011;31254;51.680;5.394;2022-09-03T18:52:39;7.97;;;3.33;;
45522;SDS011;31254;51.680;5.394;2022-09-03T18:55:41;15.07;;;3.90;;
45522;SDS011;31254;51.680;5.394;2022-09-03T19:01:41;8.95;;;3.78;;
45522;SDS011;31254;51.680;5.394;2022-09-03T19:07:56;18.70;;;4.00;;
45522;SDS011;31254;51.680;5.394;2022-09-03T19:17:36;9.02;;;3.88;;
45522;SDS011;31254;51.680;5.394;2022-09-03T19:20:37;9.73;;;8.30;;
45522;SDS011;31254;51.680;5.394;2022-09-03T19:23:35;25.55;;;16.85;;
45522;SDS011;31254;51.680;5.394;2022-09-03T19:30:12;8.63;;;2.63;;
45522;SDS011;31254;51.680;5.394;2022-09-03T19:33:14;10.45;;;2.85;;
45522;SDS011;31254;51.680;5.394;2022-09-03T19:51:53;11.98;;;4.72;;
45522;SDS011;31254;51.680;5.394;2022-09-03T19:54:45;12.38;;;6.15;;
45522;SDS011;31254;51.680;5.394;2022-09-03T19:57:34;16.58;;;6.47;;
45522;SDS011;31254;51.680;5.394;2022-09-03T20:00:21;15.63;;;6.47;;
45522;SDS011;31254;51.680;5.394;2022-09-03T20:03:06;21.85;;;8.43;;
45522;SDS011;31254;51.680;5.394;2022-09-03T20:05:54;27.88;;;6.82;;
45522;SDS011;31254;51.680;5.394;2022-09-03T20:08:39;15.20;;;7.72;;
45522;SDS011;31254;51.680;5.394;2022-09-03T20:11:24;19.40;;;7.65;;
45522;SDS011;31254;51.680;5.394;2022-09-03T20:13:54;16.85;;;6.40;;
45522;SDS011;31254;51.680;5.394;2022-09-03T20:30:13;11.90;;;5.18;;
45522;SDS011;31254;51.680;5.394;2022-09-03T20:35:26;12.18;;;6.35;;
45522;SDS011;31254;51.680;5.394;2022-09-03T20:40:45;17.58;;;6.35;;
45522;SDS011;31254;51.680;5.394;2022-09-03T20:43:21;12.43;;;5.82;;
45522;SDS011;31254;51.680;5.394;2022-09-03T20:51:03;19.38;;;6.13;;
45522;SDS011;31254;51.680;5.394;2022-09-03T21:01:46;13.30;;;7.05;;
45522;SDS011;31254;51.680;5.394;2022-09-03T21:15:24;13.93;;;6.85;;
45522;SDS011;31254;51.680;5.394;2022-09-03T21:20:54;16.85;;;7.45;;
45522;SDS011;31254;51.680;5.394;2022-09-03T21:24:12;19.00;;;8.82;;
45522;SDS011;31254;51.680;5.394;2022-09-03T21:26:46;18.02;;;9.05;;
45522;SDS011;31254;51.680;5.394;2022-09-03T21:29:28;23.70;;;8.05;;
45522;SDS011;31254;51.680;5.394;2022-09-03T21:34:50;20.23;;;8.43;;
45522;SDS011;31254;51.680;5.394;2022-09-03T21:37:23;19.70;;;8.88;;
45522;SDS011;31254;51.680;5.394;2022-09-03T21:39:50;15.70;;;8.23;;
45522;SDS011;31254;51.680;5.394;2022-09-03T21:45:09;19.55;;;9.93;;
45522;SDS011;31254;51.680;5.394;2022-09-03T21:47:39;16.63;;;9.43;;
45522;SDS011;31254;51.680;5.394;2022-09-03T21:52:49;20.13;;;10.68;;
45522;SDS011;31254;51.680;5.394;2022-09-03T21:55:21;18.77;;;11.05;;
45522;SDS011;31254;51.680;5.394;2022-09-03T21:58:01;17.13;;;10.27;;
45522;SDS011;31254;51.680;5.394;2022-09-03T22:00:39;15.60;;;11.25;;
45522;SDS011;31254;51.680;5.394;2022-09-03T22:03:06;19.52;;;10.65;;
45522;SDS011;31254;51.680;5.394;2022-09-03T22:05:47;21.58;;;11.32;;
45522;SDS011;31254;51.680;5.394;2022-09-03T22:08:37;23.40;;;10.20;;
45522;SDS011;31254;51.680;5.394;2022-09-03T22:14:03;19.25;;;10.98;;
45522;SDS011;31254;51.680;5.394;2022-09-03T22:16:42;18.00;;;10.85;;
45522;SDS011;31254;51.680;5.394;2022-09-03T22:19:24;16.90;;;9.43;;
45522;SDS011;31254;51.680;5.394;2022-09-03T22:21:54;21.58;;;10.40;;